sensor_id;sensor_type;location;lat;lon;timestamp;P1;durP1;ratioP1;P2;durP2;ratioP2
72123;SDS011;63818;37.134;-8.548;2023-09-30T00:02:41;12.5;;;6.2;;
72123;SDS011;63818;37.134;-8.548;2023-09-30T00:07:27;11.7;;;6.2;;
72123;SDS011;63818;37.134;-8.548;2023-09-30T00:12:16;10.4;;;6.2;;
72123;SDS011;63818;37.134;-8.548;2023-09-30T00:17:02;10.1;;;6.2;;
72123;SDS011;63818;37.134;-8.548;2023-09-30T00:21:48;11.0;;;6.2;;
72123;SDS011;63818;37.134;-8.548;2023-09-30T00:26:34;12.3;;;5.8;;
72123;SDS011;63818;37.134;-8.548;2023-09-30T00:31:21;12.8;;;6.0;;
72123;SDS011;63818;37.134;-8.548;2023-09-30T00:36:08;12.8;;;6.1;;
72123;SDS011;63818;37.134;-8.548;2023-09-30T00:40:54;13.1;;;5.8;;
72123;SDS011;63818;37.134;-8.548;2023-09-30T00:45:40;14.3;;;5.8;;
72123;SDS011;63818;37.134;-8.548;2023-09-30T00:50:27;12.8;;;6.0;;
72123;SDS011;63818;37.134;-8.548;2023-09-30T00:55:13;11.8;;;5.9;;
72123;SDS011;63818;37.134;-8.548;2023-09-30T01:00:00;11.3;;;5.5;;
72123;SDS011;63818;37.134;-8.548;2023-09-30T01:04:47;9.7;;;5.4;;
72123;SDS011;63818;37.134;-8.548;2023-09-30T01:09:33;12.8;;;5.5;;
72123;SDS011;63818;37.134;-8.548;2023-09-30T01:14:29;14.3;;;5.7;;
72123;SDS011;63818;37.134;-8.548;2023-09-30T01:19:15;12.5;;;5.6;;
72123;SDS011;63818;37.134;-8.548;2023-09-30T01:24:01;11.4;;;5.4;;
72123;SDS011;63818;37.134;-8.548;2023-09-30T01:28:47;13.0;;;5.7;;
72123;SDS011;63818;37.134;-8.548;2023-09-30T01:33:33;14.2;;;5.7;;
72123;SDS011;63818;37.134;-8.548;2023-09-30T01:38:21;12.4;;;5.5;;
72123;SDS011;63818;37.134;-8.548;2023-09-30T01:43:07;11.7;;;5.4;;
72123;SDS011;63818;37.134;-8.548;2023-09-30T01:47:53;10.5;;;5.3;;
72123;SDS011;63818;37.134;-8.548;2023-09-30T01:52:39;11.2;;;5.4;;
72123;SDS011;63818;37.134;-8.548;2023-09-30T01:57:25;10.9;;;5.5;;
72123;SDS011;63818;37.134;-8.548;2023-09-30T02:02:11;10.3;;;5.5;;
72123;SDS011;63818;37.134;-8.548;2023-09-30T02:06:58;9.9;;;5.4;;
72123;SDS011;63818;37.134;-8.548;2023-09-30T02:11:44;9.2;;;5.5;;
72123;SDS011;63818;37.134;-8.548;2023-09-30T02:16:30;11.0;;;6.2;;
72123;SDS011;63818;37.134;-8.548;2023-09-30T02:21:16;11.6;;;6.7;;
72123;SDS011;63818;37.134;-8.548;2023-09-30T02:26:02;11.1;;;6.3;;
72123;SDS011;63818;37.134;-8.548;2023-09-30T02:30:48;11.0;;;5.8;;
72123;SDS011;63818;37.134;-8.548;2023-09-30T02:35:34;10.9;;;5.5;;
72123;SDS011;63818;37.134;-8.548;2023-09-30T02:40:22;13.2;;;5.7;;
72123;SDS011;63818;37.134;-8.548;2023-09-30T02:45:08;12.6;;;5.7;;
72123;SDS011;63818;37.134;-8.548;2023-09-30T02:49:56;11.1;;;5.6;;
72123;SDS011;63818;37.134;-8.548;2023-09-30T02:54:43;10.6;;;5.4;;
72123;SDS011;63818;37.134;-8.548;2023-09-30T02:59:29;10.7;;;5.3;;
72123;SDS011;63818;37.134;-8.548;2023-09-30T03:04:15;12.6;;;5.5;;
72123;SDS011;63818;37.134;-8.548;2023-09-30T03:09:01;12.7;;;5.6;;
72123;SDS011;63818;37.134;-8.548;2023-09-30T03:13:47;13.1;;;5.9;;
72123;SDS011;63818;37.134;-8.548;2023-09-30T03:18:35;12.9;;;6.2;;
72123;SDS011;63818;37.134;-8.548;2023-09-30T03:23:21;13.1;;;6.3;;
72123;SDS011;63818;37.134;-8.548;2023-09-30T03:28:07;13.7;;;6.0;;
72123;SDS011;63818;37.134;-8.548;2023-09-30T03:32:53;13.6;;;5.8;;
72123;SDS011;63818;37.134;-8.548;2023-09-30T03:37:39;12.7;;;6.2;;
72123;SDS011;63818;37.134;-8.548;2023-09-30T03:42:25;10.8;;;6.2;;
72123;SDS011;63818;37.134;-8.548;2023-09-30T03:47:11;11.5;;;6.0;;
72123;SDS011;63818;37.134;-8.548;2023-09-30T03:51:57;12.9;;;6.1;;
72123;SDS011;63818;37.134;-8.548;2023-09-30T03:56:43;11.8;;;5.9;;
72123;SDS011;63818;37.134;-8.548;2023-09-30T04:01:29;10.6;;;5.9;;
72123;SDS011;63818;37.134;-8.548;2023-09-30T04:06:15;11.2;;;5.9;;
72123;SDS011;63818;37.134;-8.548;2023-09-30T04:11:03;10.9;;;5.9;;
72123;SDS011;63818;37.134;-8.548;2023-09-30T04:15:50;10.5;;;5.9;;
72123;SDS011;63818;37.134;-8.548;2023-09-30T04:20:35;11.0;;;5.6;;
72123;SDS011;63818;37.134;-8.548;2023-09-30T04:25:24;9.4;;;5.4;;
72123;SDS011;63818;37.134;-8.548;2023-09-30T04:30:10;10.7;;;5.7;;
72123;SDS011;63818;37.134;-8.548;2023-09-30T04:34:59;12.1;;;5.8;;
72123;SDS011;63818;37.134;-8.548;2023-09-30T04:39:45;14.1;;;5.6;;
72123;SDS011;63818;37.134;-8.548;2023-09-30T04:44:31;13.7;;;5.7;;
72123;SDS011;63818;37.134;-8.548;2023-09-30T04:49:17;9.7;;;5.5;;
72123;SDS011;63818;37.134;-8.548;2023-09-30T04:54:03;10.5;;;5.4;;
72123;SDS011;63818;37.134;-8.548;2023-09-30T04:58:50;10.9;;;5.9;;
72123;SDS011;63818;37.134;-8.548;2023-09-30T05:03:35;10.9;;;6.2;;
72123;SDS011;63818;37.134;-8.548;2023-09-30T05:08:21;9.9;;;5.7;;
72123;SDS011;63818;37.134;-8.548;2023-09-30T05:13:07;9.1;;;5.6;;
72123;SDS011;63818;37.134;-8.548;2023-09-30T05:17:53;11.0;;;5.9;;
72123;SDS011;63818;37.134;-8.548;2023-09-30T05:22:39;12.3;;;5.9;;
72123;SDS011;63818;37.134;-8.548;2023-09-30T05:27:25;11.6;;;5.8;;
72123;SDS011;63818;37.134;-8.548;2023-09-30T05:32:13;9.7;;;5.8;;
72123;SDS011;63818;37.134;-8.548;2023-09-30T05:36:59;9.9;;;5.6;;
72123;SDS011;63818;37.134;-8.548;2023-09-30T05:41:45;11.3;;;5.8;;
72123;SDS011;63818;37.134;-8.548;2023-09-30T05:46:31;10.9;;;5.7;;
72123;SDS011;63818;37.134;-8.548;2023-09-30T05:51:19;9.7;;;5.4;;
72123;SDS011;63818;37.134;-8.548;2023-09-30T05:56:06;8.9;;;5.4;;
72123;SDS011;63818;37.134;-8.548;2023-09-30T06:00:52;9.5;;;5.6;;
72123;SDS011;63818;37.134;-8.548;2023-09-30T06:05:40;10.5;;;5.8;;
72123;SDS011;63818;37.134;-8.548;2023-09-30T06:10:27;15.0;;;5.8;;
72123;SDS011;63818;37.134;-8.548;2023-09-30T06:15:15;15.2;;;5.8;;
72123;SDS011;63818;37.134;-8.548;2023-09-30T06:20:01;10.7;;;5.9;;
72123;SDS011;63818;37.134;-8.548;2023-09-30T06:24:49;11.0;;;5.8;;
72123;SDS011;63818;37.134;-8.548;2023-09-30T06:29:35;10.9;;;5.8;;
72123;SDS011;63818;37.134;-8.548;2023-09-30T06:34:21;10.2;;;5.9;;
72123;SDS011;63818;37.134;-8.548;2023-09-30T06:39:07;9.7;;;5.7;;
72123;SDS011;63818;37.134;-8.548;2023-09-30T06:43:53;9.5;;;5.6;;
72123;SDS011;63818;37.134;-8.548;2023-09-30T06:48:39;9.4;;;5.8;;
72123;SDS011;63818;37.134;-8.548;2023-09-30T06:53:25;9.0;;;5.7;;
72123;SDS011;63818;37.134;-8.548;2023-09-30T06:58:11;13.4;;;6.9;;
72123;SDS011;63818;37.134;-8.548;2023-09-30T07:02:58;15.0;;;7.3;;
72123;SDS011;63818;37.134;-8.548;2023-09-30T07:07:44;12.9;;;5.9;;
72123;SDS011;63818;37.134;-8.548;2023-09-30T07:12:30;14.1;;;5.7;;
72123;SDS011;63818;37.134;-8.548;2023-09-30T07:17:17;15.3;;;5.9;;
72123;SDS011;63818;37.134;-8.548;2023-09-30T07:22:02;14.6;;;5.9;;
72123;SDS011;63818;37.134;-8.548;2023-09-30T07:26:48;14.6;;;5.6;;
72123;SDS011;63818;37.134;-8.548;2023-09-30T07:31:36;18.1;;;6.5;;
72123;SDS011;63818;37.134;-8.548;2023-09-30T07:36:22;15.2;;;6.7;;
72123;SDS011;63818;37.134;-8.548;2023-09-30T07:41:10;11.2;;;6.1;;
72123;SDS011;63818;37.134;-8.548;2023-09-30T07:45:56;14.8;;;6.4;;
72123;SDS011;63818;37.134;-8.548;2023-09-30T07:50:42;15.7;;;6.4;;
72123;SDS011;63818;37.134;-8.548;2023-09-30T07:55:27;14.2;;;6.4;;
72123;SDS011;63818;37.134;-8.548;2023-09-30T08:00:14;15.3;;;6.6;;
72123;SDS011;63818;37.134;-8.548;2023-09-30T08:05:00;16.0;;;6.7;;
72123;SDS011;63818;37.134;-8.548;2023-09-30T08:09:46;13.0;;;6.0;;
72123;SDS011;63818;37.134;-8.548;2023-09-30T08:14:33;13.9;;;6.0;;
72123;SDS011;63818;37.134;-8.548;2023-09-30T08:19:19;15.0;;;6.6;;
72123;SDS011;63818;37.134;-8.548;2023-09-30T08:24:05;11.5;;;6.2;;
72123;SDS011;63818;37.134;-8.548;2023-09-30T08:28:51;11.8;;;5.7;;
72123;SDS011;63818;37.134;-8.548;2023-09-30T08:33:37;13.1;;;5.9;;
72123;SDS011;63818;37.134;-8.548;2023-09-30T08:38:26;14.1;;;6.2;;
72123;SDS011;63818;37.134;-8.548;2023-09-30T08:43:12;12.4;;;6.1;;
72123;SDS011;63818;37.134;-8.548;2023-09-30T08:48:01;10.9;;;6.1;;
72123;SDS011;63818;37.134;-8.548;2023-09-30T08:52:47;11.0;;;6.2;;
72123;SDS011;63818;37.134;-8.548;2023-09-30T08:57:39;10.6;;;5.9;;
72123;SDS011;63818;37.134;-8.548;2023-09-30T09:02:26;9.6;;;5.6;;
72123;SDS011;63818;37.134;-8.548;2023-09-30T09:07:12;9.3;;;5.8;;
72123;SDS011;63818;37.134;-8.548;2023-09-30T09:11:59;11.1;;;6.0;;
72123;SDS011;63818;37.134;-8.548;2023-09-30T09:16:54;13.1;;;6.3;;
72123;SDS011;63818;37.134;-8.548;2023-09-30T09:21:41;12.9;;;6.7;;
72123;SDS011;63818;37.134;-8.548;2023-09-30T09:26:41;13.9;;;6.3;;
72123;SDS011;63818;37.134;-8.548;2023-09-30T09:31:30;17.3;;;6.3;;
72123;SDS011;63818;37.134;-8.548;2023-09-30T09:36:19;18.8;;;6.7;;
72123;SDS011;63818;37.134;-8.548;2023-09-30T09:41:05;15.9;;;6.7;;
72123;SDS011;63818;37.134;-8.548;2023-09-30T09:45:51;12.3;;;6.7;;
72123;SDS011;63818;37.134;-8.548;2023-09-30T09:50:38;13.5;;;6.6;;
72123;SDS011;63818;37.134;-8.548;2023-09-30T09:55:25;18.4;;;6.8;;
72123;SDS011;63818;37.134;-8.548;2023-09-30T10:00:14;18.7;;;6.8;;
72123;SDS011;63818;37.134;-8.548;2023-09-30T10:05:01;17.4;;;7.1;;
72123;SDS011;63818;37.134;-8.548;2023-09-30T10:09:49;19.1;;;7.6;;
72123;SDS011;63818;37.134;-8.548;2023-09-30T10:14:37;17.6;;;7.8;;
72123;SDS011;63818;37.134;-8.548;2023-09-30T10:19:24;17.6;;;7.4;;
72123;SDS011;63818;37.134;-8.548;2023-09-30T10:24:29;20.5;;;7.3;;
72123;SDS011;63818;37.134;-8.548;2023-09-30T10:29:16;18.5;;;7.7;;
72123;SDS011;63818;37.134;-8.548;2023-09-30T10:34:21;15.0;;;7.4;;
72123;SDS011;63818;37.134;-8.548;2023-09-30T10:39:13;13.8;;;7.4;;
72123;SDS011;63818;37.134;-8.548;2023-09-30T10:44:01;21.5;;;7.5;;
72123;SDS011;63818;37.134;-8.548;2023-09-30T10:49:32;20.2;;;7.2;;
72123;SDS011;63818;37.134;-8.548;2023-09-30T10:54:23;22.1;;;7.1;;
72123;SDS011;63818;37.134;-8.548;2023-09-30T10:59:10;20.5;;;7.0;;
72123;SDS011;63818;37.134;-8.548;2023-09-30T11:04:06;23.6;;;7.4;;
72123;SDS011;63818;37.134;-8.548;2023-09-30T11:08:53;22.1;;;7.7;;
72123;SDS011;63818;37.134;-8.548;2023-09-30T11:13:41;17.1;;;7.4;;
72123;SDS011;63818;37.134;-8.548;2023-09-30T11:18:30;15.6;;;7.0;;
72123;SDS011;63818;37.134;-8.548;2023-09-30T11:23:17;15.5;;;6.9;;
72123;SDS011;63818;37.134;-8.548;2023-09-30T11:28:14;15.9;;;7.1;;
72123;SDS011;63818;37.134;-8.548;2023-09-30T11:33:01;15.3;;;7.6;;
72123;SDS011;63818;37.134;-8.548;2023-09-30T11:37:47;15.9;;;7.8;;
72123;SDS011;63818;37.134;-8.548;2023-09-30T11:42:37;15.3;;;8.4;;
72123;SDS011;63818;37.134;-8.548;2023-09-30T11:47:30;17.5;;;8.7;;
72123;SDS011;63818;37.134;-8.548;2023-09-30T11:52:16;17.7;;;8.1;;
72123;SDS011;63818;37.134;-8.548;2023-09-30T11:57:14;14.8;;;7.4;;
72123;SDS011;63818;37.134;-8.548;2023-09-30T12:02:00;18.2;;;7.2;;
72123;SDS011;63818;37.134;-8.548;2023-09-30T12:06:47;20.3;;;7.4;;
72123;SDS011;63818;37.134;-8.548;2023-09-30T12:11:33;17.6;;;7.5;;
72123;SDS011;63818;37.134;-8.548;2023-09-30T12:16:19;15.4;;;7.5;;
72123;SDS011;63818;37.134;-8.548;2023-09-30T12:21:05;14.0;;;7.3;;
72123;SDS011;63818;37.134;-8.548;2023-09-30T12:25:51;13.0;;;7.4;;
72123;SDS011;63818;37.134;-8.548;2023-09-30T12:30:37;12.3;;;7.4;;
72123;SDS011;63818;37.134;-8.548;2023-09-30T12:35:27;14.5;;;7.7;;
72123;SDS011;63818;37.134;-8.548;2023-09-30T12:40:16;19.3;;;8.2;;
72123;SDS011;63818;37.134;-8.548;2023-09-30T12:45:01;16.9;;;7.6;;
72123;SDS011;63818;37.134;-8.548;2023-09-30T12:49:52;12.8;;;7.4;;
72123;SDS011;63818;37.134;-8.548;2023-09-30T12:54:38;13.7;;;8.1;;
72123;SDS011;63818;37.134;-8.548;2023-09-30T12:59:24;15.9;;;8.3;;
72123;SDS011;63818;37.134;-8.548;2023-09-30T13:04:11;22.7;;;8.5;;
72123;SDS011;63818;37.134;-8.548;2023-09-30T13:08:57;25.3;;;9.0;;
72123;SDS011;63818;37.134;-8.548;2023-09-30T13:13:43;21.1;;;8.2;;
72123;SDS011;63818;37.134;-8.548;2023-09-30T13:18:29;17.7;;;7.6;;
72123;SDS011;63818;37.134;-8.548;2023-09-30T13:23:18;14.6;;;7.7;;
72123;SDS011;63818;37.134;-8.548;2023-09-30T13:28:04;13.7;;;7.3;;
72123;SDS011;63818;37.134;-8.548;2023-09-30T13:32:50;18.6;;;7.1;;
72123;SDS011;63818;37.134;-8.548;2023-09-30T13:37:37;19.3;;;7.2;;
72123;SDS011;63818;37.134;-8.548;2023-09-30T13:42:25;13.4;;;7.0;;
72123;SDS011;63818;37.134;-8.548;2023-09-30T13:47:11;11.4;;;7.4;;
72123;SDS011;63818;37.134;-8.548;2023-09-30T13:51:57;13.2;;;7.5;;
72123;SDS011;63818;37.134;-8.548;2023-09-30T13:56:43;15.8;;;7.4;;
72123;SDS011;63818;37.134;-8.548;2023-09-30T14:01:29;16.5;;;7.4;;
72123;SDS011;63818;37.134;-8.548;2023-09-30T14:06:18;14.4;;;7.0;;
72123;SDS011;63818;37.134;-8.548;2023-09-30T14:11:06;14.7;;;7.0;;
72123;SDS011;63818;37.134;-8.548;2023-09-30T14:15:52;17.7;;;7.3;;
72123;SDS011;63818;37.134;-8.548;2023-09-30T14:20:40;15.6;;;7.0;;
72123;SDS011;63818;37.134;-8.548;2023-09-30T14:25:26;12.3;;;6.4;;
72123;SDS011;63818;37.134;-8.548;2023-09-30T14:30:12;13.9;;;6.7;;
72123;SDS011;63818;37.134;-8.548;2023-09-30T14:34:58;12.9;;;6.6;;
72123;SDS011;63818;37.134;-8.548;2023-09-30T14:39:44;11.2;;;6.5;;
72123;SDS011;63818;37.134;-8.548;2023-09-30T14:44:30;14.0;;;6.5;;
72123;SDS011;63818;37.134;-8.548;2023-09-30T14:49:16;17.9;;;6.6;;
72123;SDS011;63818;37.134;-8.548;2023-09-30T14:54:03;16.5;;;6.7;;
72123;SDS011;63818;37.134;-8.548;2023-09-30T14:58:49;16.7;;;6.8;;
72123;SDS011;63818;37.134;-8.548;2023-09-30T15:03:37;16.4;;;7.1;;
72123;SDS011;63818;37.134;-8.548;2023-09-30T15:08:23;13.9;;;6.6;;
72123;SDS011;63818;37.134;-8.548;2023-09-30T15:13:09;12.6;;;6.4;;
72123;SDS011;63818;37.134;-8.548;2023-09-30T15:17:55;12.1;;;6.6;;
72123;SDS011;63818;37.134;-8.548;2023-09-30T15:22:41;14.4;;;6.6;;
72123;SDS011;63818;37.134;-8.548;2023-09-30T15:27:27;12.9;;;6.5;;
72123;SDS011;63818;37.134;-8.548;2023-09-30T15:32:13;13.3;;;6.8;;
72123;SDS011;63818;37.134;-8.548;2023-09-30T15:36:59;14.3;;;6.6;;
72123;SDS011;63818;37.134;-8.548;2023-09-30T15:41:45;13.7;;;6.3;;
72123;SDS011;63818;37.134;-8.548;2023-09-30T15:46:31;17.6;;;6.9;;
72123;SDS011;63818;37.134;-8.548;2023-09-30T15:51:19;16.5;;;6.8;;
72123;SDS011;63818;37.134;-8.548;2023-09-30T15:56:05;14.8;;;6.5;;
72123;SDS011;63818;37.134;-8.548;2023-09-30T16:00:53;17.7;;;7.0;;
72123;SDS011;63818;37.134;-8.548;2023-09-30T16:05:40;14.7;;;6.7;;
72123;SDS011;63818;37.134;-8.548;2023-09-30T16:10:25;12.2;;;6.4;;
72123;SDS011;63818;37.134;-8.548;2023-09-30T16:15:11;14.8;;;6.7;;
72123;SDS011;63818;37.134;-8.548;2023-09-30T16:19:57;13.9;;;6.4;;
72123;SDS011;63818;37.134;-8.548;2023-09-30T16:24:43;13.8;;;6.5;;
72123;SDS011;63818;37.134;-8.548;2023-09-30T16:29:29;13.5;;;6.5;;
72123;SDS011;63818;37.134;-8.548;2023-09-30T16:34:15;14.8;;;6.5;;
72123;SDS011;63818;37.134;-8.548;2023-09-30T16:39:01;16.8;;;7.0;;
72123;SDS011;63818;37.134;-8.548;2023-09-30T16:43:47;15.2;;;6.9;;
72123;SDS011;63818;37.134;-8.548;2023-09-30T16:48:33;17.3;;;7.1;;
72123;SDS011;63818;37.134;-8.548;2023-09-30T16:53:19;16.3;;;6.8;;
72123;SDS011;63818;37.134;-8.548;2023-09-30T16:58:05;14.9;;;6.4;;
72123;SDS011;63818;37.134;-8.548;2023-09-30T17:02:54;13.9;;;6.8;;
72123;SDS011;63818;37.134;-8.548;2023-09-30T17:07:40;12.4;;;6.7;;
72123;SDS011;63818;37.134;-8.548;2023-09-30T17:12:26;15.2;;;7.3;;
72123;SDS011;63818;37.134;-8.548;2023-09-30T17:17:14;19.1;;;7.6;;
72123;SDS011;63818;37.134;-8.548;2023-09-30T17:22:00;16.6;;;7.0;;
72123;SDS011;63818;37.134;-8.548;2023-09-30T17:26:46;15.0;;;7.0;;
72123;SDS011;63818;37.134;-8.548;2023-09-30T17:31:35;17.0;;;7.0;;
72123;SDS011;63818;37.134;-8.548;2023-09-30T17:36:22;18.3;;;6.8;;
72123;SDS011;63818;37.134;-8.548;2023-09-30T17:41:09;16.4;;;6.6;;
72123;SDS011;63818;37.134;-8.548;2023-09-30T17:45:54;15.7;;;6.7;;
72123;SDS011;63818;37.134;-8.548;2023-09-30T17:50:40;16.4;;;7.3;;
72123;SDS011;63818;37.134;-8.548;2023-09-30T17:55:26;17.8;;;7.3;;
72123;SDS011;63818;37.134;-8.548;2023-09-30T18:00:13;17.8;;;7.4;;
72123;SDS011;63818;37.134;-8.548;2023-09-30T18:04:59;15.6;;;7.5;;
72123;SDS011;63818;37.134;-8.548;2023-09-30T18:09:46;15.5;;;7.3;;
72123;SDS011;63818;37.134;-8.548;2023-09-30T18:14:31;14.1;;;7.3;;
72123;SDS011;63818;37.134;-8.548;2023-09-30T18:19:18;14.4;;;7.4;;
72123;SDS011;63818;37.134;-8.548;2023-09-30T18:24:04;14.6;;;7.4;;
72123;SDS011;63818;37.134;-8.548;2023-09-30T18:28:51;14.8;;;7.2;;
72123;SDS011;63818;37.134;-8.548;2023-09-30T18:33:37;17.1;;;7.4;;
72123;SDS011;63818;37.134;-8.548;2023-09-30T18:38:23;17.9;;;7.5;;
72123;SDS011;63818;37.134;-8.548;2023-09-30T18:43:09;16.4;;;7.4;;
72123;SDS011;63818;37.134;-8.548;2023-09-30T18:47:55;20.4;;;8.0;;
72123;SDS011;63818;37.134;-8.548;2023-09-30T18:52:41;13.9;;;8.2;;
72123;SDS011;63818;37.134;-8.548;2023-09-30T18:57:27;18.6;;;8.3;;
72123;SDS011;63818;37.134;-8.548;2023-09-30T19:02:13;20.9;;;8.1;;
72123;SDS011;63818;37.134;-8.548;2023-09-30T19:07:00;21.2;;;8.6;;
72123;SDS011;63818;37.134;-8.548;2023-09-30T19:11:46;21.5;;;8.9;;
72123;SDS011;63818;37.134;-8.548;2023-09-30T19:16:32;22.3;;;8.1;;
72123;SDS011;63818;37.134;-8.548;2023-09-30T19:21:19;23.4;;;8.2;;
72123;SDS011;63818;37.134;-8.548;2023-09-30T19:26:09;20.4;;;8.2;;
72123;SDS011;63818;37.134;-8.548;2023-09-30T19:30:55;21.0;;;7.8;;
72123;SDS011;63818;37.134;-8.548;2023-09-30T19:35:42;19.3;;;7.7;;
72123;SDS011;63818;37.134;-8.548;2023-09-30T19:40:28;22.1;;;8.4;;
72123;SDS011;63818;37.134;-8.548;2023-09-30T19:45:16;26.6;;;8.6;;
72123;SDS011;63818;37.134;-8.548;2023-09-30T19:50:04;24.1;;;8.6;;
72123;SDS011;63818;37.134;-8.548;2023-09-30T19:54:50;22.8;;;8.8;;
72123;SDS011;63818;37.134;-8.548;2023-09-30T19:59:39;24.7;;;9.1;;
72123;SDS011;63818;37.134;-8.548;2023-09-30T20:04:26;23.9;;;9.1;;
72123;SDS011;63818;37.134;-8.548;2023-09-30T20:09:12;19.9;;;9.1;;
72123;SDS011;63818;37.134;-8.548;2023-09-30T20:13:58;19.3;;;9.0;;
72123;SDS011;63818;37.134;-8.548;2023-09-30T20:18:44;17.9;;;8.6;;
72123;SDS011;63818;37.134;-8.548;2023-09-30T20:23:30;18.7;;;9.0;;
72123;SDS011;63818;37.134;-8.548;2023-09-30T20:28:16;20.5;;;9.6;;
72123;SDS011;63818;37.134;-8.548;2023-09-30T20:33:02;21.8;;;9.7;;
72123;SDS011;63818;37.134;-8.548;2023-09-30T20:37:48;22.2;;;9.8;;
72123;SDS011;63818;37.134;-8.548;2023-09-30T20:42:37;22.2;;;9.7;;
72123;SDS011;63818;37.134;-8.548;2023-09-30T20:47:23;22.8;;;9.3;;
72123;SDS011;63818;37.134;-8.548;2023-09-30T20:52:08;23.2;;;9.1;;
72123;SDS011;63818;37.134;-8.548;2023-09-30T20:56:55;21.4;;;9.3;;
72123;SDS011;63818;37.134;-8.548;2023-09-30T21:01:41;16.2;;;9.0;;
72123;SDS011;63818;37.134;-8.548;2023-09-30T21:06:26;17.4;;;8.8;;
72123;SDS011;63818;37.134;-8.548;2023-09-30T21:11:12;20.6;;;8.2;;
72123;SDS011;63818;37.134;-8.548;2023-09-30T21:15:59;17.5;;;7.7;;
72123;SDS011;63818;37.134;-8.548;2023-09-30T21:20:46;14.0;;;8.5;;
72123;SDS011;63818;37.134;-8.548;2023-09-30T21:25:33;25.2;;;9.0;;
72123;SDS011;63818;37.134;-8.548;2023-09-30T21:30:19;20.9;;;8.9;;
72123;SDS011;63818;37.134;-8.548;2023-09-30T21:35:08;19.6;;;8.8;;
72123;SDS011;63818;37.134;-8.548;2023-09-30T21:39:55;20.7;;;8.6;;
72123;SDS011;63818;37.134;-8.548;2023-09-30T21:44:41;22.1;;;8.8;;
72123;SDS011;63818;37.134;-8.548;2023-09-30T21:49:27;21.6;;;9.1;;
72123;SDS011;63818;37.134;-8.548;2023-09-30T21:54:14;23.5;;;9.0;;
72123;SDS011;63818;37.134;-8.548;2023-09-30T21:59:01;14.5;;;8.9;;
72123;SDS011;63818;37.134;-8.548;2023-09-30T22:03:47;17.6;;;8.9;;
72123;SDS011;63818;37.134;-8.548;2023-09-30T22:08:35;22.9;;;9.1;;
72123;SDS011;63818;37.134;-8.548;2023-09-30T22:13:21;20.9;;;8.8;;
72123;SDS011;63818;37.134;-8.548;2023-09-30T22:18:08;15.6;;;8.4;;
72123;SDS011;63818;37.134;-8.548;2023-09-30T22:22:55;16.7;;;8.5;;
72123;SDS011;63818;37.134;-8.548;2023-09-30T22:27:43;19.3;;;8.9;;
72123;SDS011;63818;37.134;-8.548;2023-09-30T22:32:28;21.1;;;8.9;;
72123;SDS011;63818;37.134;-8.548;2023-09-30T22:37:14;22.5;;;8.6;;
72123;SDS011;63818;37.134;-8.548;2023-09-30T22:42:00;19.1;;;8.7;;
72123;SDS011;63818;37.134;-8.548;2023-09-30T22:46:47;17.9;;;9.0;;
72123;SDS011;63818;37.134;-8.548;2023-09-30T22:51:35;17.7;;;8.7;;
72123;SDS011;63818;37.134;-8.548;2023-09-30T22:56:21;18.5;;;8.6;;
72123;SDS011;63818;37.134;-8.548;2023-09-30T23:01:09;19.9;;;8.6;;
72123;SDS011;63818;37.134;-8.548;2023-09-30T23:05:56;20.5;;;8.2;;
72123;SDS011;63818;37.134;-8.548;2023-09-30T23:10:41;22.7;;;8.2;;
72123;SDS011;63818;37.134;-8.548;2023-09-30T23:15:28;18.9;;;8.1;;
72123;SDS011;63818;37.134;-8.548;2023-09-30T23:20:15;16.8;;;8.1;;
72123;SDS011;63818;37.134;-8.548;2023-09-30T23:25:02;17.8;;;8.5;;
72123;SDS011;63818;37.134;-8.548;2023-09-30T23:29:48;17.1;;;8.4;;
72123;SDS011;63818;37.134;-8.548;2023-09-30T23:34:37;19.2;;;8.2;;
72123;SDS011;63818;37.134;-8.548;2023-09-30T23:39:24;18.7;;;8.1;;
72123;SDS011;63818;37.134;-8.548;2023-09-30T23:44:10;15.7;;;8.0;;
72123;SDS011;63818;37.134;-8.548;2023-09-30T23:48:55;18.2;;;7.8;;
72123;SDS011;63818;37.134;-8.548;2023-09-30T23:53:42;17.6;;;7.7;;
72123;SDS011;63818;37.134;-8.548;2023-09-30T23:58:28;15.6;;;7.6;;
